createdAt,value
2018-05-03T00:01:12.114Z,94944.61
2018-05-03T00:03:40.377Z,94942.13
2018-05-03T00:06:08.608Z,94936.66
2018-05-03T00:08:36.841Z,94938.67
2018-05-03T00:11:05.094Z,94933.73
2018-05-03T00:13:33.322Z,94937.86
2018-05-03T00:16:01.549Z,94934.58
2018-05-03T00:18:29.798Z,94927.65
2018-05-03T00:20:58.041Z,94926.00
2018-05-03T00:23:27.033Z,94922.41
2018-05-03T00:25:56.030Z,94938.44
2018-05-03T00:28:24.273Z,94943.45
2018-05-03T00:30:52.506Z,94938.23
2018-05-03T00:33:20.745Z,94940.08
2018-05-03T00:35:49.743Z,94947.57
2018-05-03T00:38:18.754Z,94957.19
2018-05-03T00:40:47.021Z,94950.27
2018-05-03T00:43:15.274Z,94948.68
2018-05-03T00:45:43.502Z,94958.09
2018-05-03T00:48:11.746Z,94952.52
2018-05-03T00:50:40.757Z,94948.15
2018-05-03T00:53:08.993Z,94942.80
2018-05-03T00:55:38.413Z,94951.53
2018-05-03T00:58:07.465Z,94954.34
2018-05-03T01:00:35.700Z,94956.27
2018-05-03T01:03:03.941Z,94956.66
2018-05-03T01:05:32.974Z,94947.47
2018-05-03T01:08:01.214Z,94949.62
2018-05-03T01:10:30.321Z,94945.45
2018-05-03T01:12:59.335Z,94951.83
2018-05-03T01:15:27.585Z,94956.35
2018-05-03T01:17:56.604Z,94957.44
2018-05-03T01:20:24.841Z,94949.95
2018-05-03T01:22:53.841Z,94951.72
2018-05-03T01:25:22.857Z,94950.92
2018-05-03T01:27:51.125Z,94959.52
2018-05-03T01:30:19.371Z,94955.35
2018-05-03T01:32:48.365Z,94961.25
2018-05-03T01:35:34.254Z,94959.69
2018-05-03T01:38:02.484Z,94954.98
2018-05-03T01:40:30.717Z,94957.44
2018-05-03T01:43:00.027Z,94950.81
2018-05-03T01:45:29.021Z,94954.47
2018-05-03T01:47:58.022Z,94961.82
2018-05-03T01:50:26.278Z,94965.05
2018-05-03T01:52:54.573Z,94960.48
2018-05-03T01:55:22.807Z,94957.98
2018-05-03T01:57:51.809Z,94957.66
2018-05-03T02:00:20.217Z,94954.81
2018-05-03T02:02:48.449Z,94957.59
2018-05-03T02:05:16.682Z,94954.38
2018-05-03T02:07:45.246Z,94957.06
2018-05-03T02:10:14.254Z,94968.28
2018-05-03T02:12:42.502Z,94977.50
2018-05-03T02:15:11.526Z,94980.72
2018-05-03T02:17:39.754Z,94987.48
2018-05-03T02:20:08.004Z,94982.97
2018-05-03T02:22:36.229Z,94980.27
2018-05-03T02:25:05.241Z,94978.11
2018-05-03T02:27:33.472Z,94975.38
2018-05-03T02:30:01.712Z,94989.84
2018-05-03T02:32:29.962Z,94993.20
2018-05-03T02:34:58.209Z,94992.32
2018-05-03T02:37:26.452Z,95002.58
2018-05-03T02:39:54.681Z,95006.13
2018-05-03T02:42:23.690Z,95010.77
2018-05-03T02:44:51.954Z,95015.57
2018-05-03T02:47:20.957Z,95025.67
2018-05-03T02:49:49.201Z,95025.48
2018-05-03T02:52:17.436Z,95037.86
2018-05-03T02:54:45.661Z,95041.38
2018-05-03T02:57:32.330Z,95041.38
2018-05-03T03:00:24.106Z,95041.59
2018-05-03T03:03:16.047Z,95038.30
2018-05-03T03:06:07.618Z,95038.06
2018-05-03T03:16:04.614Z,95029.73
2018-05-03T03:18:56.077Z,95035.78
2018-05-03T03:21:47.905Z,95041.17
2018-05-03T03:24:38.961Z,95034.77
2018-05-03T03:27:30.662Z,95037.53
2018-05-03T03:30:16.761Z,95045.76
2018-05-03T03:33:02.848Z,95047.77
2018-05-03T03:36:06.782Z,95047.23
2018-05-03T03:38:52.973Z,95044.30
2018-05-03T03:41:37.103Z,95031.26
2018-05-03T03:44:23.211Z,95028.68
2018-05-03T03:46:51.450Z,95030.64
2018-05-03T03:49:20.481Z,95033.86
2018-05-03T03:51:48.713Z,95040.59
2018-05-03T03:54:17.714Z,95038.24
2018-05-03T03:56:46.725Z,95034.02
2018-05-03T03:59:14.962Z,95040.32
2018-05-03T04:01:43.206Z,95025.35
2018-05-03T04:04:11.530Z,95019.09
2018-05-03T04:06:40.551Z,95018.86
2018-05-03T04:09:08.785Z,95017.09
2018-05-03T04:11:37.027Z,95028.06
2018-05-03T04:14:05.378Z,95029.34
2018-05-03T04:16:33.625Z,95039.77
2018-05-03T04:22:29.734Z,95030.76
2018-05-03T04:25:15.785Z,95026.94
2018-05-03T04:27:44.045Z,95033.67
2018-05-03T04:30:13.066Z,95036.12
2018-05-03T04:32:41.305Z,95044.92
2018-05-03T04:35:11.342Z,95048.12
2018-05-03T04:37:39.570Z,95054.19
2018-05-03T04:40:07.830Z,95061.36
2018-05-03T04:42:36.057Z,95059.29
2018-05-03T04:45:05.074Z,95065.44
2018-05-03T04:47:33.309Z,95072.36
2018-05-03T04:50:02.331Z,95068.85
2018-05-03T04:52:30.589Z,95084.05
2018-05-03T04:54:59.690Z,95082.55
2018-05-03T04:57:28.691Z,95086.48
2018-05-03T04:59:56.946Z,95083.58
2018-05-03T05:02:25.975Z,95090.09
2018-05-03T05:04:54.201Z,95093.77
2018-05-03T05:07:22.431Z,95092.72
2018-05-03T05:09:50.675Z,95094.46
2018-05-03T05:12:19.674Z,95099.36
2018-05-03T05:14:47.919Z,95093.64
2018-05-03T05:17:16.152Z,95099.94
2018-05-03T05:19:44.506Z,95096.48
2018-05-03T05:22:13.302Z,95105.53
2018-05-03T05:24:41.533Z,95107.72
2018-05-03T05:27:09.767Z,95108.22
2018-05-03T05:29:38.005Z,95106.40
2018-05-03T05:32:07.028Z,95109.67
2018-05-03T05:34:35.254Z,95108.38
2018-05-03T05:37:03.500Z,95106.63
2018-05-03T05:39:31.749Z,95110.34
2018-05-03T05:41:59.989Z,95114.28
2018-05-03T05:44:28.989Z,95121.55
2018-05-03T05:46:58.005Z,95120.52
2018-05-03T05:49:26.254Z,95123.30
2018-05-03T05:51:55.261Z,95121.75
2018-05-03T05:54:24.260Z,95115.57
2018-05-03T05:56:53.276Z,95112.53
2018-05-03T05:59:21.513Z,95116.25
2018-05-03T06:01:50.513Z,95118.16
2018-05-03T06:04:19.581Z,95119.51
2018-05-03T06:06:47.765Z,95121.61
2018-05-03T06:09:16.065Z,95131.61
2018-05-03T06:11:45.083Z,95130.13
2018-05-03T06:14:13.310Z,95131.47
2018-05-03T06:16:41.602Z,95129.33
2018-05-03T06:19:10.629Z,95129.47
2018-05-03T06:21:38.870Z,95137.13
2018-05-03T06:24:07.105Z,95137.94
2018-05-03T06:26:35.338Z,95145.14
2018-05-03T06:29:03.591Z,95142.44
2018-05-03T06:31:32.601Z,95143.12
2018-05-03T06:34:01.179Z,95142.31
2018-05-03T06:36:30.206Z,95143.82
2018-05-03T06:38:58.547Z,95142.88
2018-05-03T06:41:26.696Z,95151.35
2018-05-03T06:43:54.940Z,95153.13
2018-05-03T06:46:23.186Z,95163.38
2018-05-03T06:48:51.445Z,95166.33
2018-05-03T06:51:20.441Z,95161.27
2018-05-03T06:53:49.567Z,95156.62
2018-05-03T06:56:17.798Z,95161.44
2018-05-03T06:58:47.117Z,95163.27
2018-05-03T07:01:16.135Z,95169.39
2018-05-03T07:03:44.365Z,95170.17
2018-05-03T07:06:12.659Z,95171.81
2018-05-03T07:08:41.675Z,95168.22
2018-05-03T07:11:09.914Z,95168.75
2018-05-03T07:13:38.150Z,95164.39
2018-05-03T07:16:06.389Z,95160.92
2018-05-03T07:18:34.665Z,95162.31
2018-05-03T07:21:02.912Z,95164.66
2018-05-03T07:23:31.135Z,95168.34
2018-05-03T07:25:59.381Z,95166.70
2018-05-03T07:28:28.378Z,95170.77
2018-05-03T07:30:56.630Z,95170.39
2018-05-03T07:33:24.870Z,95177.41
2018-05-03T07:35:53.194Z,95174.48
2018-05-03T07:38:22.126Z,95179.03
2018-05-03T07:40:50.364Z,95185.61
2018-05-03T07:43:19.361Z,95188.03
2018-05-03T07:45:48.658Z,95185.11
2018-05-03T07:48:17.684Z,95185.57
2018-05-03T07:50:45.909Z,95186.34
2018-05-03T07:53:14.941Z,95189.67
2018-05-03T07:55:43.179Z,95185.86
2018-05-03T07:58:11.474Z,95183.74
2018-05-03T08:00:39.653Z,95178.36
2018-05-03T08:03:07.910Z,95183.67
2018-05-03T08:05:36.913Z,95179.42
2018-05-03T08:08:05.925Z,95185.41
2018-05-03T08:10:34.161Z,95181.69
2018-05-03T08:13:02.406Z,95179.00
2018-05-03T08:15:30.746Z,95176.75
2018-05-03T08:17:59.762Z,95172.86
2018-05-03T08:20:28.004Z,95179.44
2018-05-03T08:22:57.235Z,95187.29
2018-05-03T08:25:25.450Z,95185.56
2018-05-03T08:27:53.686Z,95192.63
2018-05-03T08:30:21.932Z,95188.25
2018-05-03T08:32:50.927Z,95193.98
2018-05-03T08:35:19.955Z,95184.64
2018-05-03T08:37:48.194Z,95190.66
2018-05-03T08:40:17.193Z,95190.34
2018-05-03T08:42:45.445Z,95193.44
2018-05-03T08:45:13.677Z,95196.02
2018-05-03T08:47:41.926Z,95194.36
2018-05-03T08:50:10.365Z,95195.70
2018-05-03T08:52:38.598Z,95195.98
2018-05-03T08:55:06.830Z,95193.31
2018-05-03T08:57:36.146Z,95202.94
2018-05-03T09:00:05.141Z,95198.45
2018-05-03T09:02:33.374Z,95204.86
2018-05-03T09:05:01.627Z,95209.25
2018-05-03T09:07:29.873Z,95210.25
2018-05-03T09:09:58.858Z,95211.97
2018-05-03T09:15:02.342Z,95216.98
2018-05-03T09:17:30.950Z,95224.61
2018-05-03T09:19:59.953Z,95224.53
2018-05-03T09:22:28.283Z,95235.13
2018-05-03T09:24:56.473Z,95234.84
2018-05-03T09:27:24.714Z,95230.75
2018-05-03T09:29:53.051Z,95233.50
2018-05-03T09:32:22.050Z,95231.55
2018-05-03T09:34:50.302Z,95240.15
2018-05-03T09:37:19.309Z,95241.66
2018-05-03T09:39:48.318Z,95255.48
2018-05-03T09:42:16.553Z,95248.81
2018-05-03T09:44:44.836Z,95243.97
2018-05-03T09:47:13.035Z,95243.84
2018-05-03T09:49:41.285Z,95244.30
2018-05-03T09:52:11.026Z,95243.48
2018-05-03T09:54:39.274Z,95247.07
2018-05-03T09:57:07.519Z,95245.59
2018-05-03T09:59:35.753Z,95243.06
2018-05-03T10:02:04.326Z,95241.34
2018-05-03T10:04:33.336Z,95241.06
2018-05-03T10:07:01.582Z,95237.17
2018-05-03T10:09:30.077Z,95235.65
2018-05-03T10:11:59.077Z,95230.26
2018-05-03T10:14:27.374Z,95227.49
2018-05-03T10:16:55.622Z,95224.86
2018-05-03T10:19:24.626Z,95217.23
2018-05-03T10:21:52.870Z,95216.44
2018-05-03T10:24:21.166Z,95205.48
2018-05-03T10:26:49.401Z,95212.05
2018-05-03T10:29:17.649Z,95207.83
2018-05-03T10:31:45.904Z,95213.87
2018-05-03T10:34:14.133Z,95213.18
2018-05-03T10:36:42.421Z,95209.02
2018-05-03T10:39:10.653Z,95215.96
2018-05-03T10:41:38.890Z,95210.24
2018-05-03T10:44:07.915Z,95203.30
2018-05-03T10:46:36.145Z,95208.67
2018-05-03T10:49:04.473Z,95206.05
2018-05-03T10:51:32.632Z,95198.83
2018-05-03T10:54:00.874Z,95203.47
2018-05-03T10:56:29.902Z,95200.39
2018-05-03T10:58:58.899Z,95202.61
2018-05-03T11:01:27.145Z,95205.75
2018-05-03T11:03:56.170Z,95205.23
2018-05-03T11:06:24.406Z,95202.05
2018-05-03T11:08:53.405Z,95192.70
2018-05-03T11:11:22.413Z,95196.32
2018-05-03T11:13:50.669Z,95194.42
2018-05-03T11:16:19.685Z,95195.50
2018-05-03T11:18:47.927Z,95198.84
2018-05-03T11:21:16.192Z,95204.34
2018-05-03T11:23:44.417Z,95205.23
2018-05-03T11:26:12.644Z,95202.98
2018-05-03T11:28:40.890Z,95199.31
2018-05-03T11:31:09.125Z,95194.64
2018-05-03T11:33:38.142Z,95198.91
2018-05-03T11:36:06.380Z,95200.16
2018-05-03T11:38:35.378Z,95196.73
2018-05-03T11:41:04.493Z,95202.27
2018-05-03T11:43:34.513Z,95202.89
2018-05-03T11:46:02.754Z,95198.61
2018-05-03T11:48:31.749Z,95200.80
2018-05-03T11:51:00.041Z,95198.06
2018-05-03T11:53:29.045Z,95200.73
2018-05-03T11:55:57.314Z,95194.83
2018-05-03T11:58:26.321Z,95195.45
2018-05-03T12:00:54.576Z,95198.78
2018-05-03T12:03:23.568Z,95206.39
2018-05-03T12:05:52.590Z,95195.53
2018-05-03T12:08:20.844Z,95195.61
2018-05-03T12:10:49.053Z,95191.69
2018-05-03T12:13:17.297Z,95196.50
2018-05-03T12:15:45.547Z,95192.23
2018-05-03T12:18:13.794Z,95191.09
2018-05-03T12:20:43.046Z,95193.28
2018-05-03T12:23:12.052Z,95195.20
2018-05-03T12:25:40.285Z,95200.14
2018-05-03T12:28:08.541Z,95196.48
2018-05-03T12:30:36.866Z,95196.10
2018-05-03T12:33:05.873Z,95198.72
2018-05-03T12:35:34.132Z,95193.64
2018-05-03T12:38:03.148Z,95198.44
2018-05-03T12:40:31.403Z,95203.59
2018-05-03T12:43:00.414Z,95197.67
2018-05-03T12:45:28.653Z,95202.38
2018-05-03T12:47:56.896Z,95202.23
2018-05-03T12:50:25.144Z,95202.88
2018-05-03T12:52:53.385Z,95204.13
2018-05-03T12:55:22.389Z,95205.08
2018-05-03T12:57:51.405Z,95203.05
2018-05-03T13:00:19.654Z,95202.41
2018-05-03T13:02:48.666Z,95204.38
2018-05-03T13:05:16.905Z,95198.55
2018-05-03T13:07:45.135Z,95192.66
2018-05-03T13:10:13.482Z,95197.34
2018-05-03T13:12:42.501Z,95200.99
2018-05-03T13:15:10.742Z,95193.05
2018-05-03T13:17:39.764Z,95198.23
2018-05-03T13:20:07.995Z,95198.63
2018-05-03T13:22:36.242Z,95197.42
2018-05-03T13:25:04.470Z,95187.38
2018-05-03T13:27:33.483Z,95188.25
2018-05-03T13:30:01.723Z,95190.64
2018-05-03T13:32:30.731Z,95182.91
2018-05-03T13:34:59.742Z,95184.52
2018-05-03T13:37:27.969Z,95178.85
2018-05-03T13:39:56.217Z,95175.92
2018-05-03T13:42:24.461Z,95166.44
2018-05-03T13:44:52.710Z,95165.19
2018-05-03T13:47:21.731Z,95163.81
2018-05-03T13:49:50.017Z,95156.70
2018-05-03T13:52:18.267Z,95156.14
2018-05-03T13:54:47.291Z,95148.63
2018-05-03T13:57:15.529Z,95150.14
2018-05-03T13:59:44.546Z,95146.08
2018-05-03T14:02:12.777Z,95144.25
2018-05-03T14:04:41.010Z,95146.97
2018-05-03T14:07:09.293Z,95139.16
2018-05-03T14:09:38.657Z,95132.27
2018-05-03T14:12:07.654Z,95130.30
2018-05-03T14:14:36.658Z,95132.13
2018-05-03T14:17:04.909Z,95123.50
2018-05-03T14:19:33.910Z,95128.10
2018-05-03T14:22:03.013Z,95122.63
2018-05-03T14:24:32.057Z,95115.43
2018-05-03T14:27:00.310Z,95121.61
2018-05-03T14:29:28.551Z,95123.19
2018-05-03T14:31:57.565Z,95123.87
2018-05-03T14:34:25.806Z,95129.99
2018-05-03T14:36:54.055Z,95128.17
2018-05-03T14:39:22.297Z,95132.00
2018-05-03T14:41:50.574Z,95129.87
2018-05-03T14:44:18.828Z,95132.16
2018-05-03T14:46:47.844Z,95132.64
2018-05-03T14:49:16.126Z,95135.67
2018-05-03T14:51:44.401Z,95134.34
2018-05-03T14:54:12.634Z,95140.98
2018-05-03T14:56:41.657Z,95141.49
2018-05-03T14:59:09.885Z,95142.52
2018-05-03T15:01:38.141Z,95142.25
2018-05-03T15:04:06.373Z,95144.17
2018-05-03T15:06:34.695Z,95140.37
2018-05-03T15:09:02.918Z,95139.52
2018-05-03T15:11:31.975Z,95142.41
2018-05-03T15:14:00.216Z,95139.81
2018-05-03T15:16:28.480Z,95142.50
2018-05-03T15:18:57.470Z,95147.04
2018-05-03T15:21:25.714Z,95153.84
2018-05-03T15:23:53.965Z,95155.35
2018-05-03T15:26:22.351Z,95162.59
2018-05-03T15:28:50.588Z,95164.75
2018-05-03T15:31:18.826Z,95160.91
2018-05-03T15:33:48.072Z,95162.38
2018-05-03T15:36:16.292Z,95175.12
2018-05-03T15:38:44.522Z,95172.00
2018-05-03T15:41:12.778Z,95166.82
2018-05-03T15:43:41.190Z,95177.80
2018-05-03T15:46:09.390Z,95179.88
2018-05-03T15:48:37.631Z,95170.95
2018-05-03T15:51:05.881Z,95177.54
2018-05-03T15:53:34.133Z,95181.88
2018-05-03T15:56:03.157Z,95183.63
2018-05-03T15:58:31.401Z,95186.64
2018-05-03T16:01:00.417Z,95190.14
2018-05-03T16:03:28.665Z,95182.41
2018-05-03T16:05:57.978Z,95189.20
2018-05-03T16:08:26.986Z,95185.47
2018-05-03T16:10:55.226Z,95186.31
2018-05-03T16:13:23.473Z,95193.06
2018-05-03T16:15:51.726Z,95190.52
2018-05-03T16:18:20.002Z,95192.33
2018-05-03T16:20:48.233Z,95194.39
2018-05-03T16:23:16.486Z,95194.22
2018-05-03T16:25:45.118Z,95192.02
2018-05-03T16:28:13.363Z,95189.52
2018-05-03T16:30:41.602Z,95186.47
2018-05-03T16:33:09.876Z,95187.52
2018-05-03T16:35:38.117Z,95191.61
2018-05-03T16:38:06.357Z,95199.30
2018-05-03T16:40:34.610Z,95206.61
2018-05-03T16:43:02.853Z,95203.89
2018-05-03T16:45:31.144Z,95206.33
2018-05-03T16:48:00.167Z,95196.28
2018-05-03T16:50:28.389Z,95210.38
2018-05-03T16:52:56.641Z,95205.55
2018-05-03T16:55:25.647Z,95206.76
2018-05-03T16:57:54.673Z,95204.92
2018-05-03T17:00:22.926Z,95207.28
2018-05-03T17:02:51.934Z,95210.73
2018-05-03T17:05:20.181Z,95208.17
2018-05-03T17:07:49.205Z,95215.48
2018-05-03T17:10:17.454Z,95205.45
2018-05-03T17:12:46.489Z,95204.53
2018-05-03T17:15:14.730Z,95206.53
2018-05-03T17:17:43.735Z,95199.72
2018-05-03T17:20:12.331Z,95206.37
2018-05-03T17:22:40.552Z,95208.66
2018-05-03T17:25:08.791Z,95209.18
2018-05-03T17:27:37.142Z,95208.59
2018-05-03T17:30:05.399Z,95216.18
2018-05-03T17:32:34.435Z,95217.46
2018-05-03T17:35:02.670Z,95207.25
2018-05-03T17:37:31.673Z,95211.95
2018-05-03T17:39:59.929Z,95215.80
2018-05-03T17:42:28.174Z,95214.48
2018-05-03T17:44:56.413Z,95219.40
2018-05-03T17:47:24.658Z,95221.53
2018-05-03T17:49:53.665Z,95216.95
2018-05-03T17:52:22.685Z,95224.25
2018-05-03T17:54:50.933Z,95224.73
2018-05-03T17:57:19.937Z,95237.12
2018-05-03T17:59:48.205Z,95237.37
2018-05-03T18:02:16.454Z,95240.43
2018-05-03T18:04:45.028Z,95248.96
2018-05-03T18:07:13.206Z,95247.27
2018-05-03T18:09:41.443Z,95253.10
2018-05-03T18:12:09.790Z,95263.52
2018-05-03T18:14:38.034Z,95263.47
2018-05-03T18:17:06.549Z,95270.03
2018-05-03T18:19:34.934Z,95279.91
2018-05-03T18:22:03.174Z,95283.59
2018-05-03T18:24:32.435Z,95288.43
2018-05-03T18:27:00.782Z,95294.52
2018-05-03T18:29:29.026Z,95300.51
2018-05-03T18:31:57.278Z,95311.95
2018-05-03T18:34:25.530Z,95313.61
2018-05-03T18:36:53.806Z,95321.94
2018-05-03T18:39:22.034Z,95328.87
2018-05-03T18:41:51.041Z,95330.72
2018-05-03T18:44:20.086Z,95333.56
2018-05-03T18:46:48.413Z,95336.34
2018-05-03T18:49:17.461Z,95336.34
2018-05-03T18:51:45.691Z,95334.09
2018-05-03T18:54:14.738Z,95332.97
2018-05-03T18:56:43.003Z,95340.58
2018-05-03T18:59:11.247Z,95338.97
2018-05-03T19:01:39.522Z,95344.75
2018-05-03T19:04:07.818Z,95344.72
2018-05-03T19:06:36.082Z,95344.48
2018-05-03T19:09:04.321Z,95351.33
2018-05-03T19:11:33.560Z,95356.84
2018-05-03T19:14:01.794Z,95358.28
2018-05-03T19:16:30.045Z,95359.98
2018-05-03T19:18:58.289Z,95364.07
2018-05-03T19:21:26.564Z,95362.72
2018-05-03T19:23:54.813Z,95361.73
2018-05-03T19:26:23.062Z,95361.03
2018-05-03T19:28:51.310Z,95369.22
2018-05-03T19:31:19.555Z,95363.50
2018-05-03T19:33:47.814Z,95365.47
2018-05-03T19:36:16.837Z,95362.84
2018-05-03T19:38:45.082Z,95369.23
2018-05-03T19:41:14.087Z,95369.45
2018-05-03T19:43:42.333Z,95361.38
2018-05-03T19:46:11.349Z,95360.78
2018-05-03T19:48:39.597Z,95368.03
2018-05-03T19:51:08.642Z,95358.73
2018-05-03T19:53:36.885Z,95365.14
2018-05-03T19:56:05.892Z,95365.94
2018-05-03T19:58:34.151Z,95363.92
2018-05-03T20:01:03.258Z,95363.47
2018-05-03T20:03:32.264Z,95372.33
2018-05-03T20:06:00.510Z,95369.75
2018-05-03T20:08:29.530Z,95372.14
2018-05-03T20:10:57.774Z,95371.37
2018-05-03T20:13:26.786Z,95378.02
2018-05-03T20:15:55.815Z,95371.88
2018-05-03T20:18:24.061Z,95375.03
2018-05-03T20:20:52.339Z,95371.53
2018-05-03T20:23:20.590Z,95374.83
2018-05-03T20:25:49.602Z,95368.28
2018-05-03T20:28:17.877Z,95368.36
2018-05-03T20:30:46.240Z,95366.52
2018-05-03T20:33:15.925Z,95363.83
2018-05-03T20:35:44.168Z,95371.72
2018-05-03T20:38:12.413Z,95363.42
2018-05-03T20:40:41.495Z,95358.48
2018-05-03T20:43:10.531Z,95360.53
2018-05-03T20:45:38.790Z,95359.82
2018-05-03T20:48:07.030Z,95358.96
2018-05-03T20:50:35.294Z,95361.67
2018-05-03T20:53:03.533Z,95357.63
2018-05-03T20:55:31.782Z,95355.81
2018-05-03T20:58:00.033Z,95360.09
2018-05-03T21:00:29.793Z,95359.61
2018-05-03T21:02:58.038Z,95352.94
2018-05-03T21:05:27.081Z,95350.78
2018-05-03T21:07:56.079Z,95348.76
2018-05-03T21:10:24.317Z,95351.66
2018-05-03T21:12:52.573Z,95343.58
2018-05-03T21:15:21.599Z,95354.42
2018-05-03T21:17:49.850Z,95348.84
2018-05-03T21:20:18.153Z,95350.68
2018-05-03T21:22:46.394Z,95358.57
2018-05-03T21:25:15.405Z,95353.55
2018-05-03T21:27:43.641Z,95357.84
2018-05-03T21:30:11.950Z,95360.11
2018-05-03T21:32:40.201Z,95358.17
2018-05-03T21:35:08.462Z,95355.95
2018-05-03T21:37:36.705Z,95351.84
2018-05-03T21:40:04.945Z,95350.89
2018-05-03T21:42:33.970Z,95356.13
2018-05-03T21:45:02.243Z,95358.72
2018-05-03T21:47:30.482Z,95353.89
2018-05-03T21:49:59.486Z,95362.19
2018-05-03T21:52:27.788Z,95362.93
2018-05-03T21:54:56.758Z,95378.20
2018-05-03T21:57:25.016Z,95375.08
2018-05-03T21:59:54.030Z,95382.48
2018-05-03T22:02:22.282Z,95385.76
2018-05-03T22:04:50.540Z,95384.95
2018-05-03T22:07:18.779Z,95389.06
2018-05-03T22:09:47.030Z,95402.44
2018-05-03T22:12:15.292Z,95401.56
2018-05-03T22:14:44.296Z,95401.83
2018-05-03T22:17:13.328Z,95397.34
2018-05-03T22:19:41.561Z,95398.45
2018-05-03T22:22:10.574Z,95396.93
2018-05-03T22:24:38.826Z,95399.01
2018-05-03T22:27:07.834Z,95406.99
2018-05-03T22:29:36.095Z,95404.56
2018-05-03T22:32:05.118Z,95408.23
2018-05-03T22:34:33.357Z,95415.48
2018-05-03T22:37:02.369Z,95402.91
2018-05-03T22:39:30.623Z,95409.38
2018-05-03T22:41:59.631Z,95404.10
2018-05-03T22:44:28.654Z,95410.88
2018-05-03T22:46:56.890Z,95407.39
2018-05-03T22:49:26.185Z,95405.14
2018-05-03T22:51:54.428Z,95411.59
2018-05-03T22:54:22.657Z,95408.00
2018-05-03T22:56:50.918Z,95405.00
2018-05-03T22:59:19.918Z,95406.41
2018-05-03T23:01:48.941Z,95408.38
2018-05-03T23:04:17.173Z,95405.25
2018-05-03T23:06:46.193Z,95407.05
2018-05-03T23:09:14.436Z,95403.34
2018-05-03T23:11:42.693Z,95409.68
2018-05-03T23:14:10.937Z,95412.78
2018-05-03T23:16:39.177Z,95415.69
2018-05-03T23:19:08.437Z,95413.72
2018-05-03T23:21:36.680Z,95407.06
2018-05-03T23:24:04.913Z,95407.23
2018-05-03T23:26:33.166Z,95404.27
2018-05-03T23:29:01.414Z,95415.80
2018-05-03T23:31:29.669Z,95420.03
2018-05-03T23:33:57.910Z,95423.42
2018-05-03T23:36:26.151Z,95426.36
2018-05-03T23:38:54.398Z,95424.74
2018-05-03T23:41:22.633Z,95428.11
2018-05-03T23:43:50.883Z,95435.63
2018-05-03T23:46:19.134Z,95435.58
2018-05-03T23:48:47.374Z,95433.31
2018-05-03T23:51:16.386Z,95437.59
2018-05-03T23:53:44.621Z,95434.84
2018-05-03T23:56:12.878Z,95437.23
2018-05-03T23:58:41.131Z,95440.91
